sensor_id;sensor_type;location;lat;lon;timestamp;P1;durP1;ratioP1;P2;durP2;ratioP2
5137;SDS011;53959;53.626;11.410;2023-08-31T00:01:31;1581.33;;;820.93;;
5137;SDS011;53959;53.626;11.410;2023-08-31T00:03:58;1578.83;;;819.13;;
5137;SDS011;53959;53.626;11.410;2023-08-31T00:06:24;1587.60;;;819.20;;
5137;SDS011;53959;53.626;11.410;2023-08-31T00:08:50;1580.17;;;819.43;;
5137;SDS011;53959;53.626;11.410;2023-08-31T00:11:16;1581.70;;;818.87;;
5137;SDS011;53959;53.626;11.410;2023-08-31T00:13:41;1576.70;;;818.30;;
5137;SDS011;53959;53.626;11.410;2023-08-31T00:16:07;1585.33;;;819.33;;
5137;SDS011;53959;53.626;11.410;2023-08-31T00:18:34;1585.27;;;818.47;;
5137;SDS011;53959;53.626;11.410;2023-08-31T00:21:01;1592.87;;;822.33;;
5137;SDS011;53959;53.626;11.410;2023-08-31T00:23:28;1582.70;;;818.47;;
5137;SDS011;53959;53.626;11.410;2023-08-31T00:25:53;1581.33;;;818.93;;
5137;SDS011;53959;53.626;11.410;2023-08-31T00:28:19;1590.70;;;821.13;;
5137;SDS011;53959;53.626;11.410;2023-08-31T00:30:45;1589.63;;;820.50;;
5137;SDS011;53959;53.626;11.410;2023-08-31T00:33:12;1589.07;;;820.10;;
5137;SDS011;53959;53.626;11.410;2023-08-31T00:35:37;1596.93;;;820.43;;
5137;SDS011;53959;53.626;11.410;2023-08-31T00:38:03;1593.57;;;819.67;;
5137;SDS011;53959;53.626;11.410;2023-08-31T00:40:29;1579.50;;;815.50;;
5137;SDS011;53959;53.626;11.410;2023-08-31T00:42:56;1587.87;;;817.80;;
5137;SDS011;53959;53.626;11.410;2023-08-31T00:45:22;1580.40;;;817.60;;
5137;SDS011;53959;53.626;11.410;2023-08-31T00:47:48;1580.07;;;818.43;;
5137;SDS011;53959;53.626;11.410;2023-08-31T00:50:14;1580.93;;;817.47;;
5137;SDS011;53959;53.626;11.410;2023-08-31T00:52:40;1572.67;;;817.13;;
5137;SDS011;53959;53.626;11.410;2023-08-31T00:55:09;1578.03;;;821.57;;
5137;SDS011;53959;53.626;11.410;2023-08-31T00:57:35;1567.20;;;816.10;;
5137;SDS011;53959;53.626;11.410;2023-08-31T01:00:01;1564.33;;;816.40;;
5137;SDS011;53959;53.626;11.410;2023-08-31T01:02:49;1569.87;;;817.53;;
5137;SDS011;53959;53.626;11.410;2023-08-31T01:08:36;1553.37;;;814.50;;
5137;SDS011;53959;53.626;11.410;2023-08-31T01:11:08;1567.83;;;819.10;;
5137;SDS011;53959;53.626;11.410;2023-08-31T01:13:45;1564.80;;;822.07;;
5137;SDS011;53959;53.626;11.410;2023-08-31T01:16:19;1573.47;;;823.30;;
5137;SDS011;53959;53.626;11.410;2023-08-31T01:18:47;1566.83;;;816.77;;
5137;SDS011;53959;53.626;11.410;2023-08-31T01:21:27;1562.13;;;814.77;;
5137;SDS011;53959;53.626;11.410;2023-08-31T01:23:56;1553.17;;;816.40;;
5137;SDS011;53959;53.626;11.410;2023-08-31T01:26:23;1558.63;;;816.30;;
5137;SDS011;53959;53.626;11.410;2023-08-31T01:28:49;1561.37;;;818.43;;
5137;SDS011;53959;53.626;11.410;2023-08-31T01:31:15;1562.73;;;818.50;;
5137;SDS011;53959;53.626;11.410;2023-08-31T01:33:41;1554.30;;;818.07;;
5137;SDS011;53959;53.626;11.410;2023-08-31T01:36:08;1562.13;;;818.03;;
5137;SDS011;53959;53.626;11.410;2023-08-31T01:38:52;1555.43;;;818.87;;
5137;SDS011;53959;53.626;11.410;2023-08-31T01:41:26;1559.77;;;818.23;;
5137;SDS011;53959;53.626;11.410;2023-08-31T01:43:54;1559.87;;;816.43;;
5137;SDS011;53959;53.626;11.410;2023-08-31T01:46:21;1558.67;;;816.97;;
5137;SDS011;53959;53.626;11.410;2023-08-31T01:48:46;1548.90;;;810.93;;
5137;SDS011;53959;53.626;11.410;2023-08-31T01:51:12;1565.13;;;817.03;;
5137;SDS011;53959;53.626;11.410;2023-08-31T01:53:38;1572.17;;;818.63;;
5137;SDS011;53959;53.626;11.410;2023-08-31T01:56:03;1561.10;;;814.53;;
5137;SDS011;53959;53.626;11.410;2023-08-31T01:58:30;1563.30;;;816.97;;
5137;SDS011;53959;53.626;11.410;2023-08-31T02:00:55;1559.70;;;813.57;;
5137;SDS011;53959;53.626;11.410;2023-08-31T02:03:21;1555.90;;;813.27;;
5137;SDS011;53959;53.626;11.410;2023-08-31T02:05:47;1571.57;;;817.07;;
5137;SDS011;53959;53.626;11.410;2023-08-31T02:08:13;1565.50;;;817.07;;
5137;SDS011;53959;53.626;11.410;2023-08-31T02:10:43;1567.43;;;818.53;;
5137;SDS011;53959;53.626;11.410;2023-08-31T02:13:09;1576.37;;;821.53;;
5137;SDS011;53959;53.626;11.410;2023-08-31T02:15:37;1573.50;;;819.07;;
5137;SDS011;53959;53.626;11.410;2023-08-31T02:18:03;1574.50;;;821.17;;
5137;SDS011;53959;53.626;11.410;2023-08-31T02:20:29;1570.03;;;816.03;;
5137;SDS011;53959;53.626;11.410;2023-08-31T02:22:55;1586.17;;;819.53;;
5137;SDS011;53959;53.626;11.410;2023-08-31T02:25:21;1577.83;;;817.77;;
5137;SDS011;53959;53.626;11.410;2023-08-31T02:27:46;1586.17;;;821.27;;
5137;SDS011;53959;53.626;11.410;2023-08-31T02:30:13;1573.10;;;815.20;;
5137;SDS011;53959;53.626;11.410;2023-08-31T02:32:39;1575.40;;;816.93;;
5137;SDS011;53959;53.626;11.410;2023-08-31T02:35:04;1580.10;;;817.57;;
5137;SDS011;53959;53.626;11.410;2023-08-31T02:37:30;1581.20;;;816.70;;
5137;SDS011;53959;53.626;11.410;2023-08-31T02:39:55;1584.53;;;819.50;;
5137;SDS011;53959;53.626;11.410;2023-08-31T02:42:21;1587.50;;;818.63;;
5137;SDS011;53959;53.626;11.410;2023-08-31T02:44:46;1593.53;;;820.73;;
5137;SDS011;53959;53.626;11.410;2023-08-31T02:47:12;1589.47;;;815.10;;
5137;SDS011;53959;53.626;11.410;2023-08-31T02:49:37;1600.43;;;822.87;;
5137;SDS011;53959;53.626;11.410;2023-08-31T02:52:03;1599.77;;;822.03;;
5137;SDS011;53959;53.626;11.410;2023-08-31T02:54:28;1585.00;;;816.20;;
5137;SDS011;53959;53.626;11.410;2023-08-31T02:56:54;1589.57;;;819.13;;
5137;SDS011;53959;53.626;11.410;2023-08-31T02:59:19;1583.27;;;817.77;;
5137;SDS011;53959;53.626;11.410;2023-08-31T03:01:44;1582.57;;;818.43;;
5137;SDS011;53959;53.626;11.410;2023-08-31T03:04:11;1584.87;;;816.43;;
5137;SDS011;53959;53.626;11.410;2023-08-31T03:06:37;1589.33;;;820.93;;
5137;SDS011;53959;53.626;11.410;2023-08-31T03:09:02;1581.57;;;818.77;;
5137;SDS011;53959;53.626;11.410;2023-08-31T03:11:28;1580.17;;;817.10;;
5137;SDS011;53959;53.626;11.410;2023-08-31T03:13:55;1590.97;;;816.83;;
5137;SDS011;53959;53.626;11.410;2023-08-31T03:16:21;1582.60;;;817.13;;
5137;SDS011;53959;53.626;11.410;2023-08-31T03:18:46;1584.63;;;820.23;;
5137;SDS011;53959;53.626;11.410;2023-08-31T03:21:11;1586.60;;;818.63;;
5137;SDS011;53959;53.626;11.410;2023-08-31T03:23:37;1574.83;;;812.73;;
5137;SDS011;53959;53.626;11.410;2023-08-31T03:26:06;1577.90;;;815.77;;
5137;SDS011;53959;53.626;11.410;2023-08-31T03:28:33;1581.13;;;818.20;;
5137;SDS011;53959;53.626;11.410;2023-08-31T03:30:59;1570.20;;;814.07;;
5137;SDS011;53959;53.626;11.410;2023-08-31T03:33:25;1587.53;;;818.90;;
5137;SDS011;53959;53.626;11.410;2023-08-31T03:35:50;1588.37;;;818.70;;
5137;SDS011;53959;53.626;11.410;2023-08-31T03:38:16;1583.03;;;818.00;;
5137;SDS011;53959;53.626;11.410;2023-08-31T03:40:42;1577.47;;;817.13;;
5137;SDS011;53959;53.626;11.410;2023-08-31T03:43:07;1576.93;;;815.37;;
5137;SDS011;53959;53.626;11.410;2023-08-31T03:45:32;1574.70;;;817.10;;
5137;SDS011;53959;53.626;11.410;2023-08-31T03:47:58;1566.53;;;812.67;;
5137;SDS011;53959;53.626;11.410;2023-08-31T03:50:24;1565.23;;;810.20;;
5137;SDS011;53959;53.626;11.410;2023-08-31T03:52:49;1571.07;;;816.00;;
5137;SDS011;53959;53.626;11.410;2023-08-31T03:55:15;1568.47;;;816.70;;
5137;SDS011;53959;53.626;11.410;2023-08-31T03:57:40;1567.73;;;813.37;;
5137;SDS011;53959;53.626;11.410;2023-08-31T04:00:13;1559.80;;;812.67;;
5137;SDS011;53959;53.626;11.410;2023-08-31T04:02:42;1562.73;;;812.97;;
5137;SDS011;53959;53.626;11.410;2023-08-31T04:05:10;1567.40;;;816.60;;
5137;SDS011;53959;53.626;11.410;2023-08-31T04:07:35;1566.07;;;814.50;;
5137;SDS011;53959;53.626;11.410;2023-08-31T04:10:01;1567.57;;;815.93;;
5137;SDS011;53959;53.626;11.410;2023-08-31T04:12:26;1557.67;;;811.07;;
5137;SDS011;53959;53.626;11.410;2023-08-31T04:14:52;1569.63;;;816.80;;
5137;SDS011;53959;53.626;11.410;2023-08-31T04:17:17;1570.60;;;816.07;;
5137;SDS011;53959;53.626;11.410;2023-08-31T04:19:42;1570.43;;;816.33;;
5137;SDS011;53959;53.626;11.410;2023-08-31T04:22:08;1571.13;;;816.47;;
5137;SDS011;53959;53.626;11.410;2023-08-31T04:24:33;1577.80;;;817.63;;
5137;SDS011;53959;53.626;11.410;2023-08-31T04:26:58;1582.67;;;819.57;;
5137;SDS011;53959;53.626;11.410;2023-08-31T04:29:24;1574.37;;;814.60;;
5137;SDS011;53959;53.626;11.410;2023-08-31T04:31:50;1575.07;;;816.97;;
5137;SDS011;53959;53.626;11.410;2023-08-31T04:34:15;1574.90;;;819.10;;
5137;SDS011;53959;53.626;11.410;2023-08-31T04:36:41;1563.23;;;813.27;;
5137;SDS011;53959;53.626;11.410;2023-08-31T04:39:06;1573.50;;;818.93;;
5137;SDS011;53959;53.626;11.410;2023-08-31T04:41:32;1577.57;;;818.80;;
5137;SDS011;53959;53.626;11.410;2023-08-31T04:43:58;1582.90;;;818.93;;
5137;SDS011;53959;53.626;11.410;2023-08-31T04:46:23;1575.47;;;816.27;;
5137;SDS011;53959;53.626;11.410;2023-08-31T04:48:49;1581.40;;;817.40;;
5137;SDS011;53959;53.626;11.410;2023-08-31T04:51:27;1583.37;;;816.40;;
5137;SDS011;53959;53.626;11.410;2023-08-31T04:53:53;1584.23;;;819.30;;
5137;SDS011;53959;53.626;11.410;2023-08-31T04:56:19;1576.53;;;815.33;;
5137;SDS011;53959;53.626;11.410;2023-08-31T04:58:44;1564.80;;;810.43;;
5137;SDS011;53959;53.626;11.410;2023-08-31T05:01:10;1569.53;;;813.53;;
5137;SDS011;53959;53.626;11.410;2023-08-31T05:03:35;1574.53;;;816.03;;
5137;SDS011;53959;53.626;11.410;2023-08-31T05:06:00;1573.40;;;814.93;;
5137;SDS011;53959;53.626;11.410;2023-08-31T05:08:26;1575.07;;;817.00;;
5137;SDS011;53959;53.626;11.410;2023-08-31T05:10:51;1567.13;;;813.90;;
5137;SDS011;53959;53.626;11.410;2023-08-31T05:13:16;1571.63;;;817.07;;
5137;SDS011;53959;53.626;11.410;2023-08-31T05:15:42;1553.27;;;811.00;;
5137;SDS011;53959;53.626;11.410;2023-08-31T05:18:07;1564.73;;;815.23;;
5137;SDS011;53959;53.626;11.410;2023-08-31T05:20:33;1564.23;;;813.17;;
5137;SDS011;53959;53.626;11.410;2023-08-31T05:22:59;1583.00;;;820.30;;
5137;SDS011;53959;53.626;11.410;2023-08-31T05:25:24;1576.43;;;816.10;;
5137;SDS011;53959;53.626;11.410;2023-08-31T05:27:49;1573.73;;;815.10;;
5137;SDS011;53959;53.626;11.410;2023-08-31T05:30:15;1574.10;;;814.87;;
5137;SDS011;53959;53.626;11.410;2023-08-31T05:32:40;1549.43;;;804.40;;
5137;SDS011;53959;53.626;11.410;2023-08-31T05:35:06;1593.10;;;817.87;;
5137;SDS011;53959;53.626;11.410;2023-08-31T05:37:32;1590.50;;;814.77;;
5137;SDS011;53959;53.626;11.410;2023-08-31T05:39:59;1581.87;;;815.53;;
5137;SDS011;53959;53.626;11.410;2023-08-31T05:42:24;1581.77;;;813.97;;
5137;SDS011;53959;53.626;11.410;2023-08-31T05:44:49;1557.53;;;810.17;;
5137;SDS011;53959;53.626;11.410;2023-08-31T05:47:15;1657.87;;;823.40;;
5137;SDS011;53959;53.626;11.410;2023-08-31T05:49:40;1579.37;;;820.40;;
5137;SDS011;53959;53.626;11.410;2023-08-31T05:52:05;1585.17;;;820.73;;
5137;SDS011;53959;53.626;11.410;2023-08-31T05:54:31;1580.73;;;817.10;;
5137;SDS011;53959;53.626;11.410;2023-08-31T05:56:56;1577.17;;;815.57;;
5137;SDS011;53959;53.626;11.410;2023-08-31T05:59:21;1580.97;;;817.80;;
5137;SDS011;53959;53.626;11.410;2023-08-31T06:01:47;1576.63;;;815.80;;
5137;SDS011;53959;53.626;11.410;2023-08-31T06:04:12;1581.33;;;818.50;;
5137;SDS011;53959;53.626;11.410;2023-08-31T06:06:37;1585.17;;;819.77;;
5137;SDS011;53959;53.626;11.410;2023-08-31T06:09:03;1585.63;;;821.97;;
5137;SDS011;53959;53.626;11.410;2023-08-31T06:11:29;1568.97;;;813.47;;
5137;SDS011;53959;53.626;11.410;2023-08-31T06:13:55;1571.87;;;816.67;;
5137;SDS011;53959;53.626;11.410;2023-08-31T06:16:20;1558.97;;;810.80;;
5137;SDS011;53959;53.626;11.410;2023-08-31T06:18:45;1567.83;;;809.93;;
5137;SDS011;53959;53.626;11.410;2023-08-31T06:21:10;1583.10;;;815.17;;
5137;SDS011;53959;53.626;11.410;2023-08-31T06:23:36;1588.27;;;817.53;;
5137;SDS011;53959;53.626;11.410;2023-08-31T06:26:01;1582.43;;;817.23;;
5137;SDS011;53959;53.626;11.410;2023-08-31T06:28:28;1583.00;;;814.93;;
5137;SDS011;53959;53.626;11.410;2023-08-31T06:30:53;1574.40;;;809.83;;
5137;SDS011;53959;53.626;11.410;2023-08-31T06:33:19;1584.47;;;815.13;;
5137;SDS011;53959;53.626;11.410;2023-08-31T06:35:45;1567.17;;;810.07;;
5137;SDS011;53959;53.626;11.410;2023-08-31T06:38:13;1579.13;;;815.50;;
5137;SDS011;53959;53.626;11.410;2023-08-31T06:40:38;1574.17;;;816.57;;
5137;SDS011;53959;53.626;11.410;2023-08-31T06:43:04;1579.97;;;818.60;;
5137;SDS011;53959;53.626;11.410;2023-08-31T06:45:29;1585.13;;;817.53;;
5137;SDS011;53959;53.626;11.410;2023-08-31T06:47:54;1568.20;;;811.57;;
5137;SDS011;53959;53.626;11.410;2023-08-31T06:50:20;1579.83;;;817.30;;
5137;SDS011;53959;53.626;11.410;2023-08-31T06:52:45;1573.60;;;812.17;;
5137;SDS011;53959;53.626;11.410;2023-08-31T06:55:11;1589.60;;;816.00;;
5137;SDS011;53959;53.626;11.410;2023-08-31T06:57:37;1590.30;;;814.93;;
5137;SDS011;53959;53.626;11.410;2023-08-31T07:00:02;1594.70;;;816.40;;
5137;SDS011;53959;53.626;11.410;2023-08-31T07:02:29;1602.57;;;816.43;;
5137;SDS011;53959;53.626;11.410;2023-08-31T07:04:54;1595.43;;;816.30;;
5137;SDS011;53959;53.626;11.410;2023-08-31T07:07:19;1601.33;;;815.10;;
5137;SDS011;53959;53.626;11.410;2023-08-31T07:09:45;1599.23;;;816.77;;
5137;SDS011;53959;53.626;11.410;2023-08-31T07:12:12;1607.37;;;817.53;;
5137;SDS011;53959;53.626;11.410;2023-08-31T07:14:37;1607.10;;;814.90;;
5137;SDS011;53959;53.626;11.410;2023-08-31T07:17:03;1612.73;;;820.47;;
5137;SDS011;53959;53.626;11.410;2023-08-31T07:19:29;1609.67;;;816.97;;
5137;SDS011;53959;53.626;11.410;2023-08-31T07:21:54;1606.90;;;817.37;;
5137;SDS011;53959;53.626;11.410;2023-08-31T07:24:20;1615.87;;;817.33;;
5137;SDS011;53959;53.626;11.410;2023-08-31T07:26:46;1617.43;;;817.57;;
5137;SDS011;53959;53.626;11.410;2023-08-31T07:29:11;1615.43;;;817.47;;
5137;SDS011;53959;53.626;11.410;2023-08-31T07:31:37;1624.13;;;821.43;;
5137;SDS011;53959;53.626;11.410;2023-08-31T07:34:02;1633.83;;;820.27;;
5137;SDS011;53959;53.626;11.410;2023-08-31T07:36:28;1636.57;;;818.43;;
5137;SDS011;53959;53.626;11.410;2023-08-31T07:38:53;1650.80;;;817.83;;
5137;SDS011;53959;53.626;11.410;2023-08-31T07:41:19;1660.07;;;822.87;;
5137;SDS011;53959;53.626;11.410;2023-08-31T07:43:44;1665.40;;;823.40;;
5137;SDS011;53959;53.626;11.410;2023-08-31T07:46:09;1677.83;;;824.20;;
5137;SDS011;53959;53.626;11.410;2023-08-31T07:48:35;1678.20;;;822.20;;
5137;SDS011;53959;53.626;11.410;2023-08-31T07:51:00;1678.27;;;825.87;;
5137;SDS011;53959;53.626;11.410;2023-08-31T07:53:26;1697.60;;;825.87;;
5137;SDS011;53959;53.626;11.410;2023-08-31T07:55:52;1717.17;;;830.57;;
5137;SDS011;53959;53.626;11.410;2023-08-31T07:58:19;1718.27;;;830.47;;
5137;SDS011;53959;53.626;11.410;2023-08-31T08:00:45;1712.80;;;829.93;;
5137;SDS011;53959;53.626;11.410;2023-08-31T08:03:10;1723.50;;;830.03;;
5137;SDS011;53959;53.626;11.410;2023-08-31T08:05:36;1725.70;;;834.10;;
5137;SDS011;53959;53.626;11.410;2023-08-31T08:08:02;1710.00;;;837.17;;
5137;SDS011;53959;53.626;11.410;2023-08-31T08:10:27;1658.47;;;833.67;;
5137;SDS011;53959;53.626;11.410;2023-08-31T08:12:53;1649.17;;;832.40;;
5137;SDS011;53959;53.626;11.410;2023-08-31T08:15:18;1625.33;;;831.87;;
5137;SDS011;53959;53.626;11.410;2023-08-31T08:17:43;1589.80;;;826.27;;
5137;SDS011;53959;53.626;11.410;2023-08-31T08:20:09;1580.97;;;823.40;;
5137;SDS011;53959;53.626;11.410;2023-08-31T08:22:35;1592.63;;;825.13;;
5137;SDS011;53959;53.626;11.410;2023-08-31T08:25:01;1614.43;;;826.93;;
5137;SDS011;53959;53.626;11.410;2023-08-31T08:27:27;1602.57;;;824.80;;
5137;SDS011;53959;53.626;11.410;2023-08-31T08:29:53;1593.90;;;820.97;;
5137;SDS011;53959;53.626;11.410;2023-08-31T08:32:18;1604.03;;;824.73;;
5137;SDS011;53959;53.626;11.410;2023-08-31T08:34:43;1608.10;;;824.27;;
5137;SDS011;53959;53.626;11.410;2023-08-31T08:37:09;1603.90;;;823.50;;
5137;SDS011;53959;53.626;11.410;2023-08-31T08:39:34;1607.40;;;824.87;;
5137;SDS011;53959;53.626;11.410;2023-08-31T08:41:59;1609.33;;;823.03;;
5137;SDS011;53959;53.626;11.410;2023-08-31T08:44:31;1619.13;;;824.30;;
5137;SDS011;53959;53.626;11.410;2023-08-31T08:46:59;1635.83;;;827.80;;
5137;SDS011;53959;53.626;11.410;2023-08-31T08:49:26;1638.47;;;831.00;;
5137;SDS011;53959;53.626;11.410;2023-08-31T08:51:51;1622.73;;;822.23;;
5137;SDS011;53959;53.626;11.410;2023-08-31T08:54:18;1656.40;;;829.60;;
5137;SDS011;53959;53.626;11.410;2023-08-31T08:56:43;1649.67;;;830.60;;
5137;SDS011;53959;53.626;11.410;2023-08-31T08:59:09;1659.13;;;830.37;;
5137;SDS011;53959;53.626;11.410;2023-08-31T09:01:38;1661.97;;;831.97;;
5137;SDS011;53959;53.626;11.410;2023-08-31T09:04:04;1659.50;;;831.80;;
5137;SDS011;53959;53.626;11.410;2023-08-31T09:06:29;1644.83;;;830.87;;
5137;SDS011;53959;53.626;11.410;2023-08-31T09:08:55;1634.73;;;828.63;;
5137;SDS011;53959;53.626;11.410;2023-08-31T09:11:23;1605.27;;;821.90;;
5137;SDS011;53959;53.626;11.410;2023-08-31T09:13:50;1625.03;;;826.37;;
5137;SDS011;53959;53.626;11.410;2023-08-31T09:16:23;1596.17;;;818.13;;
5137;SDS011;53959;53.626;11.410;2023-08-31T09:18:51;1610.57;;;824.07;;
5137;SDS011;53959;53.626;11.410;2023-08-31T09:21:17;1612.53;;;822.00;;
5137;SDS011;53959;53.626;11.410;2023-08-31T09:23:46;1610.60;;;822.27;;
5137;SDS011;53959;53.626;11.410;2023-08-31T09:26:12;1609.97;;;822.60;;
5137;SDS011;53959;53.626;11.410;2023-08-31T09:28:40;1615.20;;;823.17;;
5137;SDS011;53959;53.626;11.410;2023-08-31T09:31:06;1625.87;;;826.90;;
5137;SDS011;53959;53.626;11.410;2023-08-31T09:33:32;1616.57;;;822.57;;
5137;SDS011;53959;53.626;11.410;2023-08-31T09:36:00;1610.93;;;820.10;;
5137;SDS011;53959;53.626;11.410;2023-08-31T09:38:26;1616.67;;;821.97;;
5137;SDS011;53959;53.626;11.410;2023-08-31T09:40:52;1617.33;;;822.47;;
5137;SDS011;53959;53.626;11.410;2023-08-31T09:43:28;1610.27;;;822.60;;
5137;SDS011;53959;53.626;11.410;2023-08-31T09:45:53;1627.37;;;823.87;;
5137;SDS011;53959;53.626;11.410;2023-08-31T09:48:19;1628.30;;;821.30;;
5137;SDS011;53959;53.626;11.410;2023-08-31T09:50:45;1631.90;;;824.77;;
5137;SDS011;53959;53.626;11.410;2023-08-31T09:53:11;1622.10;;;824.17;;
5137;SDS011;53959;53.626;11.410;2023-08-31T09:55:38;1620.40;;;821.17;;
5137;SDS011;53959;53.626;11.410;2023-08-31T09:58:05;1624.63;;;822.53;;
5137;SDS011;53959;53.626;11.410;2023-08-31T10:00:32;1591.63;;;820.57;;
5137;SDS011;53959;53.626;11.410;2023-08-31T10:03:05;1584.13;;;819.40;;
5137;SDS011;53959;53.626;11.410;2023-08-31T10:05:31;1567.90;;;813.53;;
5137;SDS011;53959;53.626;11.410;2023-08-31T10:07:58;1586.73;;;821.27;;
5137;SDS011;53959;53.626;11.410;2023-08-31T10:10:24;1586.10;;;822.70;;
5137;SDS011;53959;53.626;11.410;2023-08-31T10:12:50;1592.07;;;820.90;;
5137;SDS011;53959;53.626;11.410;2023-08-31T10:15:17;1585.47;;;817.80;;
5137;SDS011;53959;53.626;11.410;2023-08-31T10:17:43;1595.10;;;820.53;;
5137;SDS011;53959;53.626;11.410;2023-08-31T10:20:09;1601.77;;;820.30;;
5137;SDS011;53959;53.626;11.410;2023-08-31T10:22:36;1593.33;;;818.73;;
5137;SDS011;53959;53.626;11.410;2023-08-31T10:25:03;1599.90;;;819.47;;
5137;SDS011;53959;53.626;11.410;2023-08-31T10:27:37;1599.80;;;821.20;;
5137;SDS011;53959;53.626;11.410;2023-08-31T10:35:41;1597.40;;;821.13;;
5137;SDS011;53959;53.626;11.410;2023-08-31T10:38:16;1595.17;;;818.77;;
5137;SDS011;53959;53.626;11.410;2023-08-31T10:41:00;1606.90;;;822.00;;
5137;SDS011;53959;53.626;11.410;2023-08-31T10:43:26;1600.53;;;819.60;;
5137;SDS011;53959;53.626;11.410;2023-08-31T10:45:51;1616.13;;;823.47;;
5137;SDS011;53959;53.626;11.410;2023-08-31T10:48:19;1603.37;;;816.83;;
5137;SDS011;53959;53.626;11.410;2023-08-31T10:50:45;1599.17;;;820.67;;
5137;SDS011;53959;53.626;11.410;2023-08-31T10:53:12;1664.60;;;824.67;;
5137;SDS011;53959;53.626;11.410;2023-08-31T10:55:53;1707.20;;;827.43;;
5137;SDS011;53959;53.626;11.410;2023-08-31T10:58:18;1689.83;;;829.97;;
5137;SDS011;53959;53.626;11.410;2023-08-31T11:00:50;1689.33;;;826.90;;
5137;SDS011;53959;53.626;11.410;2023-08-31T11:03:21;1689.70;;;829.10;;
5137;SDS011;53959;53.626;11.410;2023-08-31T11:05:50;1675.83;;;825.27;;
5137;SDS011;53959;53.626;11.410;2023-08-31T11:08:21;1684.73;;;828.57;;
5137;SDS011;53959;53.626;11.410;2023-08-31T11:10:47;1678.47;;;827.13;;
5137;SDS011;53959;53.626;11.410;2023-08-31T11:13:15;1650.87;;;823.60;;
5137;SDS011;53959;53.626;11.410;2023-08-31T11:15:45;1676.70;;;827.87;;
5137;SDS011;53959;53.626;11.410;2023-08-31T11:18:11;1695.83;;;830.30;;
5137;SDS011;53959;53.626;11.410;2023-08-31T11:20:36;1687.70;;;823.90;;
5137;SDS011;53959;53.626;11.410;2023-08-31T11:23:02;1673.47;;;825.27;;
5137;SDS011;53959;53.626;11.410;2023-08-31T11:25:30;1693.77;;;827.27;;
5137;SDS011;53959;53.626;11.410;2023-08-31T11:28:17;1688.07;;;825.70;;
5137;SDS011;53959;53.626;11.410;2023-08-31T11:30:41;1671.83;;;824.40;;
5137;SDS011;53959;53.626;11.410;2023-08-31T11:33:09;1686.47;;;826.30;;
5137;SDS011;53959;53.626;11.410;2023-08-31T11:35:37;1607.33;;;816.37;;
5137;SDS011;53959;53.626;11.410;2023-08-31T11:38:06;1644.43;;;823.47;;
5137;SDS011;53959;53.626;11.410;2023-08-31T11:40:32;1572.63;;;815.17;;
5137;SDS011;53959;53.626;11.410;2023-08-31T11:42:58;1560.07;;;810.47;;
5137;SDS011;53959;53.626;11.410;2023-08-31T11:45:25;1567.17;;;814.17;;
5137;SDS011;53959;53.626;11.410;2023-08-31T11:47:52;1563.67;;;812.87;;
5137;SDS011;53959;53.626;11.410;2023-08-31T11:50:18;1569.47;;;818.33;;
5137;SDS011;53959;53.626;11.410;2023-08-31T11:52:45;1553.60;;;809.17;;
5137;SDS011;53959;53.626;11.410;2023-08-31T11:55:12;1570.27;;;816.83;;
5137;SDS011;53959;53.626;11.410;2023-08-31T11:57:38;1578.77;;;820.50;;
5137;SDS011;53959;53.626;11.410;2023-08-31T12:00:03;1569.23;;;815.27;;
5137;SDS011;53959;53.626;11.410;2023-08-31T12:02:36;1583.13;;;820.57;;
5137;SDS011;53959;53.626;11.410;2023-08-31T12:05:02;1580.33;;;819.53;;
5137;SDS011;53959;53.626;11.410;2023-08-31T12:07:27;1577.37;;;816.10;;
5137;SDS011;53959;53.626;11.410;2023-08-31T12:09:53;1580.73;;;815.30;;
5137;SDS011;53959;53.626;11.410;2023-08-31T12:12:21;1575.90;;;811.10;;
5137;SDS011;53959;53.626;11.410;2023-08-31T12:14:47;1615.37;;;823.07;;
5137;SDS011;53959;53.626;11.410;2023-08-31T12:17:12;1604.03;;;822.60;;
5137;SDS011;53959;53.626;11.410;2023-08-31T12:19:38;1585.50;;;816.40;;
5137;SDS011;53959;53.626;11.410;2023-08-31T12:22:04;1576.33;;;814.03;;
5137;SDS011;53959;53.626;11.410;2023-08-31T12:24:39;1569.17;;;810.93;;
5137;SDS011;53959;53.626;11.410;2023-08-31T12:27:08;1577.60;;;813.93;;
5137;SDS011;53959;53.626;11.410;2023-08-31T12:29:34;1596.00;;;818.47;;
5137;SDS011;53959;53.626;11.410;2023-08-31T12:32:00;1602.17;;;819.87;;
5137;SDS011;53959;53.626;11.410;2023-08-31T12:34:25;1599.80;;;819.97;;
5137;SDS011;53959;53.626;11.410;2023-08-31T12:36:51;1587.20;;;815.00;;
5137;SDS011;53959;53.626;11.410;2023-08-31T12:39:17;1597.60;;;817.60;;
5137;SDS011;53959;53.626;11.410;2023-08-31T12:41:43;1594.73;;;815.67;;
5137;SDS011;53959;53.626;11.410;2023-08-31T12:44:08;1609.57;;;819.23;;
5137;SDS011;53959;53.626;11.410;2023-08-31T12:46:33;1612.63;;;820.87;;
5137;SDS011;53959;53.626;11.410;2023-08-31T12:49:00;1621.17;;;822.60;;
5137;SDS011;53959;53.626;11.410;2023-08-31T12:51:26;1624.63;;;820.50;;
5137;SDS011;53959;53.626;11.410;2023-08-31T12:53:53;1631.30;;;821.30;;
5137;SDS011;53959;53.626;11.410;2023-08-31T12:56:18;1639.47;;;823.93;;
5137;SDS011;53959;53.626;11.410;2023-08-31T12:58:50;1628.13;;;826.47;;
5137;SDS011;53959;53.626;11.410;2023-08-31T13:01:16;1599.57;;;823.40;;
5137;SDS011;53959;53.626;11.410;2023-08-31T13:03:42;1594.20;;;822.57;;
5137;SDS011;53959;53.626;11.410;2023-08-31T13:06:08;1576.27;;;818.60;;
5137;SDS011;53959;53.626;11.410;2023-08-31T13:08:33;1587.33;;;818.87;;
5137;SDS011;53959;53.626;11.410;2023-08-31T13:11:00;1582.83;;;820.07;;
5137;SDS011;53959;53.626;11.410;2023-08-31T13:13:25;1578.80;;;818.77;;
5137;SDS011;53959;53.626;11.410;2023-08-31T13:15:51;1584.13;;;818.63;;
5137;SDS011;53959;53.626;11.410;2023-08-31T13:18:16;1563.83;;;813.93;;
5137;SDS011;53959;53.626;11.410;2023-08-31T13:20:51;1566.10;;;814.57;;
5137;SDS011;53959;53.626;11.410;2023-08-31T13:23:17;1552.47;;;809.60;;
5137;SDS011;53959;53.626;11.410;2023-08-31T13:25:43;1575.73;;;814.87;;
5137;SDS011;53959;53.626;11.410;2023-08-31T13:28:08;1576.03;;;812.90;;
5137;SDS011;53959;53.626;11.410;2023-08-31T13:30:34;1582.57;;;815.47;;
5137;SDS011;53959;53.626;11.410;2023-08-31T13:33:00;1597.30;;;822.40;;
5137;SDS011;53959;53.626;11.410;2023-08-31T13:35:25;1586.43;;;816.83;;
5137;SDS011;53959;53.626;11.410;2023-08-31T13:37:50;1585.83;;;815.23;;
5137;SDS011;53959;53.626;11.410;2023-08-31T13:40:16;1597.27;;;819.53;;
5137;SDS011;53959;53.626;11.410;2023-08-31T13:42:53;1596.97;;;818.23;;
5137;SDS011;53959;53.626;11.410;2023-08-31T13:45:19;1598.13;;;820.37;;
5137;SDS011;53959;53.626;11.410;2023-08-31T13:47:45;1598.67;;;820.57;;
5137;SDS011;53959;53.626;11.410;2023-08-31T13:50:14;1594.30;;;815.00;;